Terminal Aerodrome Forecast
Issued by NWS

Home | Current Version | Previous Version | Text Only | Print | Product List | Glossary On
Versions: 1 2 3 4 5 6 7 8 9 10 11 12 13 14 15
000
FTUS43 KFGF 301900 AAA
TAFBJI
TAF AMD
KBJI 301958Z 3020/3118 VRB04KT P6SM -RA OVC035
      TEMPO 3020/3023 5SM -RA BKN025
     FM302300 29009KT P6SM SCT120=

USA.gov is the U.S. government's official web portal to all federal, state and local government web resources and services.